createdAt,value
2022-12-12T00:02:16.853Z,-3.99
2022-12-12T00:04:43.386Z,-4.09
2022-12-12T00:07:10.194Z,-4.13
2022-12-12T00:09:36.654Z,-4.07
2022-12-12T00:12:03.166Z,-3.96
2022-12-12T00:14:29.640Z,-4.04
2022-12-12T00:16:56.101Z,-4.05
2022-12-12T00:19:22.579Z,-4.06
2022-12-12T00:21:49.815Z,-4.07
2022-12-12T00:24:16.312Z,-4.08
2022-12-12T00:26:42.776Z,-4.13
2022-12-12T00:29:10.014Z,-4.31
2022-12-12T00:31:36.593Z,-4.14
2022-12-12T00:34:03.101Z,-4.08
2022-12-12T00:36:30.060Z,-4.12
2022-12-12T00:38:56.713Z,-4.10
2022-12-12T00:41:23.230Z,-4.08
2022-12-12T00:43:49.842Z,-4.21
2022-12-12T00:46:17.867Z,-4.35
2022-12-12T00:48:44.434Z,-4.43
2022-12-12T00:51:12.827Z,-4.37
2022-12-12T00:53:39.388Z,-4.36
2022-12-12T00:56:06.194Z,-4.35
2022-12-12T00:58:32.702Z,-4.13
2022-12-12T01:01:06.254Z,-4.27
2022-12-12T01:03:34.030Z,-4.31
2022-12-12T01:06:00.599Z,-4.22
2022-12-12T01:08:27.308Z,-4.44
2022-12-12T01:10:53.888Z,-4.43
2022-12-12T01:13:20.362Z,-4.47
2022-12-12T01:15:47.179Z,-4.45
2022-12-12T01:18:14.235Z,-4.38
2022-12-12T01:20:41.139Z,-4.40
2022-12-12T01:23:07.642Z,-4.40
2022-12-12T01:25:34.193Z,-4.29
2022-12-12T01:28:00.662Z,-4.46
2022-12-12T01:30:27.409Z,-4.62
2022-12-12T01:32:55.063Z,-4.49
2022-12-12T01:35:22.201Z,-4.66
2022-12-12T01:37:49.357Z,-4.53
2022-12-12T01:40:21.216Z,-4.56
2022-12-12T01:42:47.786Z,-4.77
2022-12-12T01:45:51.933Z,-4.59
2022-12-12T01:48:19.154Z,-4.61
2022-12-12T01:50:45.626Z,-4.67
2022-12-12T01:53:12.215Z,-4.62
2022-12-12T01:55:38.671Z,-4.67
2022-12-12T01:58:05.136Z,-4.64
2022-12-12T02:00:31.667Z,-4.62
2022-12-12T02:02:58.180Z,-4.68
2022-12-12T02:05:27.890Z,-4.71
2022-12-12T02:07:54.411Z,-4.69
2022-12-12T02:10:21.129Z,-4.77
2022-12-12T02:12:47.583Z,-4.84
2022-12-12T02:15:14.414Z,-4.71
2022-12-12T02:18:03.407Z,-4.60
2022-12-12T02:20:39.886Z,-4.66
2022-12-12T02:23:39.417Z,-4.84
2022-12-12T02:26:36.963Z,-5.00
2022-12-12T02:29:25.675Z,-4.76
2022-12-12T02:31:52.694Z,-4.72
2022-12-12T02:34:26.132Z,-4.73
2022-12-12T02:37:04.734Z,-4.79
2022-12-12T02:39:43.988Z,-4.83
2022-12-12T02:42:34.005Z,-4.84
2022-12-12T02:45:04.009Z,-4.73
2022-12-12T02:47:30.952Z,-4.67
2022-12-12T02:50:09.117Z,-4.66
2022-12-12T02:52:36.178Z,-4.71
2022-12-12T02:55:03.089Z,-4.71
2022-12-12T02:57:29.544Z,-4.75
2022-12-12T03:00:07.307Z,-4.80
2022-12-12T03:02:48.802Z,-4.81
2022-12-12T03:06:03.102Z,-4.80
2022-12-12T03:08:55.229Z,-4.75
2022-12-12T03:11:53.976Z,-4.81
2022-12-12T03:14:27.254Z,-4.84
2022-12-12T03:17:02.031Z,-4.83
2022-12-12T03:19:29.216Z,-4.77
2022-12-12T03:22:14.488Z,-4.80
2022-12-12T03:24:46.868Z,-4.84
2022-12-12T03:27:26.878Z,-4.91
2022-12-12T03:30:03.630Z,-4.93
2022-12-12T03:32:34.676Z,-4.89
2022-12-12T03:35:07.202Z,-4.88
2022-12-12T03:37:39.103Z,-4.88
2022-12-12T03:40:13.977Z,-5.13
2022-12-12T03:42:43.865Z,-5.11
2022-12-12T03:45:48.274Z,-5.17
2022-12-12T03:48:27.113Z,-5.30
2022-12-12T03:50:56.031Z,-5.52
2022-12-12T03:53:36.378Z,-5.31
2022-12-12T03:56:42.769Z,-5.22
2022-12-12T03:59:11.477Z,-5.22
2022-12-12T04:01:48.378Z,-5.28
2022-12-12T04:04:27.658Z,-5.43
2022-12-12T04:07:12.346Z,-5.43
2022-12-12T04:09:57.613Z,-5.29
2022-12-12T04:12:47.613Z,-5.28
2022-12-12T04:15:14.121Z,-5.23
2022-12-12T04:18:04.833Z,-5.30
2022-12-12T04:21:01.522Z,-5.30
2022-12-12T04:23:51.566Z,-5.36
2022-12-12T04:26:39.868Z,-5.43
2022-12-12T04:29:11.709Z,-5.46
2022-12-12T04:31:46.274Z,-5.63
2022-12-12T04:34:15.458Z,-5.73
2022-12-12T04:36:41.943Z,-5.69
2022-12-12T04:39:08.403Z,-5.69
2022-12-12T04:41:34.889Z,-5.60
2022-12-12T04:44:02.026Z,-5.76
2022-12-12T04:46:28.566Z,-5.70
2022-12-12T04:48:58.048Z,-5.86
2022-12-12T04:51:31.271Z,-5.70
2022-12-12T04:54:03.131Z,-5.46
2022-12-12T04:56:29.778Z,-5.34
2022-12-12T04:58:56.723Z,-5.32
2022-12-12T05:01:53.193Z,-5.44
2022-12-12T05:04:55.528Z,-5.57
2022-12-12T05:07:39.247Z,-5.71
2022-12-12T05:10:16.428Z,-5.77
2022-12-12T05:12:45.072Z,-5.77
2022-12-12T05:15:11.979Z,-5.60
2022-12-12T05:17:49.054Z,-5.55
2022-12-12T05:20:15.620Z,-5.57
2022-12-12T05:22:42.137Z,-5.74
2022-12-12T05:25:08.828Z,-5.81
2022-12-12T05:27:35.319Z,-5.86
2022-12-12T05:30:01.809Z,-5.91
2022-12-12T05:32:28.286Z,-6.03
2022-12-12T05:34:54.754Z,-6.21
2022-12-12T05:37:21.217Z,-6.19
2022-12-12T05:39:48.020Z,-6.22
2022-12-12T05:42:14.532Z,-6.23
2022-12-12T05:44:41.404Z,-6.03
2022-12-12T05:47:08.226Z,-6.12
2022-12-12T05:49:34.707Z,-6.20
2022-12-12T05:52:01.973Z,-6.05
2022-12-12T05:54:28.450Z,-5.91
2022-12-12T05:56:54.901Z,-5.78
2022-12-12T05:59:21.394Z,-5.75
2022-12-12T06:01:47.851Z,-5.76
2022-12-12T06:04:14.426Z,-5.86
2022-12-12T06:06:40.934Z,-5.93
2022-12-12T06:09:07.466Z,-6.00
2022-12-12T06:11:33.927Z,-5.83
2022-12-12T06:14:00.443Z,-5.75
2022-12-12T06:16:26.938Z,-5.71
2022-12-12T06:18:54.137Z,-5.87
2022-12-12T06:21:20.951Z,-5.74
2022-12-12T06:23:47.471Z,-5.67
2022-12-12T06:26:15.107Z,-5.63
2022-12-12T06:28:41.670Z,-5.77
2022-12-12T06:31:11.585Z,-5.70
2022-12-12T06:33:38.618Z,-5.75
2022-12-12T06:36:08.475Z,-6.00
2022-12-12T06:38:35.617Z,-6.08
2022-12-12T06:41:12.722Z,-5.98
2022-12-12T06:43:39.534Z,-5.93
2022-12-12T06:46:07.314Z,-6.06
2022-12-12T06:48:34.653Z,-5.92
2022-12-12T06:51:05.994Z,-5.75
2022-12-12T06:53:32.493Z,-5.78
2022-12-12T06:55:58.949Z,-5.82
2022-12-12T06:58:25.441Z,-5.91
2022-12-12T07:00:55.252Z,-5.87
2022-12-12T07:03:21.729Z,-5.99
2022-12-12T07:05:48.264Z,-6.32
2022-12-12T07:08:15.391Z,-6.37
2022-12-12T07:10:42.327Z,-6.30
2022-12-12T07:13:08.849Z,-6.33
2022-12-12T07:15:41.327Z,-6.29
2022-12-12T07:18:08.025Z,-6.18
2022-12-12T07:20:34.499Z,-6.31
2022-12-12T07:23:01.034Z,-6.37
2022-12-12T07:25:27.511Z,-6.19
2022-12-12T07:27:53.964Z,-6.41
2022-12-12T07:30:20.474Z,-6.60
2022-12-12T07:32:46.922Z,-6.43
2022-12-12T07:35:13.717Z,-6.33
2022-12-12T07:37:40.381Z,-6.32
2022-12-12T07:40:07.209Z,-6.25
2022-12-12T07:42:33.656Z,-6.23
2022-12-12T07:45:00.198Z,-6.26
2022-12-12T07:47:26.669Z,-6.31
2022-12-12T07:49:54.458Z,-6.22
2022-12-12T07:52:21.568Z,-6.21
2022-12-12T07:54:48.035Z,-6.27
2022-12-12T07:57:14.502Z,-6.15
2022-12-12T07:59:41.027Z,-6.08
2022-12-12T08:02:07.527Z,-5.93
2022-12-12T08:04:34.100Z,-5.85
2022-12-12T08:07:06.844Z,-5.96
2022-12-12T08:09:36.649Z,-5.90
2022-12-12T08:12:03.176Z,-5.95
2022-12-12T08:14:29.779Z,-5.98
2022-12-12T08:16:56.318Z,-5.90
2022-12-12T08:19:22.789Z,-5.90
2022-12-12T08:21:49.278Z,-5.78
2022-12-12T08:24:15.844Z,-5.38
2022-12-12T08:26:42.884Z,-5.46
2022-12-12T08:29:09.437Z,-5.52
2022-12-12T08:31:35.983Z,-5.52
2022-12-12T08:34:02.493Z,-5.52
2022-12-12T08:36:30.458Z,-5.43
2022-12-12T08:38:58.434Z,-5.28
2022-12-12T08:41:25.167Z,-5.28
2022-12-12T08:43:52.476Z,-5.14
2022-12-12T08:46:19.688Z,-5.00
2022-12-12T08:48:46.987Z,-4.94
2022-12-12T08:51:13.932Z,-4.89
2022-12-12T08:53:40.588Z,-4.82
2022-12-12T08:56:07.353Z,-4.71
2022-12-12T08:58:33.804Z,-4.62
2022-12-12T09:01:00.260Z,-4.51
2022-12-12T09:03:29.393Z,-4.46
2022-12-12T09:05:56.293Z,-4.27
2022-12-12T09:08:22.815Z,-4.12
2022-12-12T09:10:50.054Z,-3.94
2022-12-12T09:13:16.832Z,-3.94
2022-12-12T09:15:43.637Z,-3.93
2022-12-12T09:18:10.104Z,-3.83
2022-12-12T09:20:36.608Z,-3.72
2022-12-12T09:23:03.075Z,-3.64
2022-12-12T09:25:29.548Z,-3.50
2022-12-12T09:27:56.180Z,-3.46
2022-12-12T09:30:22.713Z,-3.41
2022-12-12T09:32:49.202Z,-3.34
2022-12-12T09:35:16.212Z,-3.41
2022-12-12T09:37:42.834Z,-3.46
2022-12-12T09:40:13.109Z,-3.47
2022-12-12T09:42:39.933Z,-3.37
2022-12-12T09:45:06.978Z,-3.36
2022-12-12T09:47:40.817Z,-3.29
2022-12-12T09:50:12.335Z,-3.20
2022-12-12T09:52:38.995Z,-3.10
2022-12-12T09:55:20.542Z,-2.97
2022-12-12T09:57:52.466Z,-2.86
2022-12-12T10:00:19.153Z,-2.85
2022-12-12T10:02:54.827Z,-2.83
2022-12-12T10:05:24.213Z,-2.83
2022-12-12T10:07:56.116Z,-2.71
2022-12-12T10:10:31.032Z,-2.62
2022-12-12T10:12:58.272Z,-2.55
2022-12-12T10:15:38.470Z,-2.50
2022-12-12T10:18:13.054Z,-2.42
2022-12-12T10:20:51.198Z,-2.23
2022-12-12T10:23:35.593Z,-2.16
2022-12-12T10:26:05.720Z,-2.12
2022-12-12T10:28:32.194Z,-2.08
2022-12-12T10:31:02.088Z,-1.92
2022-12-12T10:33:43.902Z,-1.71
2022-12-12T10:36:37.159Z,-1.62
2022-12-12T10:39:06.546Z,-1.47
2022-12-12T10:41:40.277Z,-1.28
2022-12-12T10:44:25.726Z,-1.23
2022-12-12T10:47:06.317Z,-1.19
2022-12-12T10:49:32.906Z,-1.39
2022-12-12T10:52:01.177Z,-1.35
2022-12-12T10:54:27.993Z,-1.28
2022-12-12T10:57:11.106Z,-1.30
2022-12-12T10:59:54.735Z,-1.28
2022-12-12T11:02:27.813Z,-1.21
2022-12-12T11:04:59.612Z,-1.21
2022-12-12T11:07:26.070Z,-0.96
2022-12-12T11:09:57.648Z,-0.94
2022-12-12T11:12:36.188Z,-0.86
2022-12-12T11:15:06.483Z,-0.81
2022-12-12T11:17:33.920Z,-0.61
2022-12-12T11:20:02.448Z,-0.71
2022-12-12T11:22:31.150Z,-0.48
2022-12-12T11:29:08.003Z,-0.32
2022-12-12T11:31:34.475Z,-0.13
2022-12-12T11:34:02.066Z,0.23
2022-12-12T11:36:34.578Z,0.15
2022-12-12T11:39:01.553Z,0.03
2022-12-12T11:41:28.012Z,0.14
2022-12-12T11:43:56.414Z,0.27
2022-12-12T11:46:30.339Z,0.42
2022-12-12T11:49:01.070Z,0.50
2022-12-12T11:51:41.079Z,0.57
2022-12-12T11:54:14.850Z,0.68
2022-12-12T11:56:49.211Z,0.80
2022-12-12T12:00:00.780Z,0.85
2022-12-12T12:02:50.243Z,0.79
2022-12-12T12:05:35.698Z,0.82
2022-12-12T12:08:18.138Z,0.77
2022-12-12T12:11:06.791Z,0.66
2022-12-12T12:13:55.563Z,0.78
2022-12-12T12:17:01.407Z,0.72
2022-12-12T12:20:05.795Z,0.72
2022-12-12T12:22:40.809Z,0.56
2022-12-12T12:25:15.179Z,0.48
2022-12-12T12:28:26.506Z,0.44
2022-12-12T12:31:14.080Z,-0.66
2022-12-12T12:33:52.993Z,-0.76
2022-12-12T12:36:31.856Z,-0.68
2022-12-12T12:39:03.639Z,-0.93
2022-12-12T12:41:58.937Z,-1.06
2022-12-12T12:44:37.407Z,-1.15
2022-12-12T12:47:15.984Z,-1.16
2022-12-12T12:49:45.986Z,-1.47
2022-12-12T12:52:17.033Z,-1.40
2022-12-12T12:54:47.512Z,-1.45
2022-12-12T12:57:25.046Z,-1.61
2022-12-12T12:59:52.800Z,-1.56
2022-12-12T13:02:56.280Z,-1.72
2022-12-12T13:05:27.100Z,-1.87
2022-12-12T13:07:56.496Z,-1.92
2022-12-12T13:10:24.749Z,-1.84
2022-12-12T13:13:14.761Z,-1.89
2022-12-12T13:15:46.626Z,-2.07
2022-12-12T13:18:14.375Z,-1.98
2022-12-12T13:20:42.463Z,-2.04
2022-12-12T13:23:33.055Z,-1.99
2022-12-12T13:26:36.997Z,-1.96
2022-12-12T13:29:26.339Z,-1.91
2022-12-12T13:32:17.703Z,-2.00
2022-12-12T13:34:46.422Z,-1.92
2022-12-12T13:37:15.124Z,-1.99
2022-12-12T13:39:41.574Z,-1.92
2022-12-12T13:42:08.929Z,-2.01
2022-12-12T13:44:38.254Z,-2.13
2022-12-12T13:47:31.515Z,-2.08
2022-12-12T13:50:10.056Z,-2.05
2022-12-12T13:52:42.778Z,-2.04
2022-12-12T13:55:18.323Z,-1.98
2022-12-12T13:58:01.587Z,-1.90
2022-12-12T14:00:48.763Z,-1.94
2022-12-12T14:03:29.186Z,-1.85
2022-12-12T14:05:55.962Z,-1.82
2022-12-12T14:08:29.916Z,-1.99
2022-12-12T14:11:01.597Z,-1.96
2022-12-12T14:13:41.833Z,-1.97
2022-12-12T14:16:20.104Z,-1.82
2022-12-12T14:18:49.508Z,-1.83
2022-12-12T14:21:16.642Z,-1.85
2022-12-12T14:23:47.089Z,-2.00
2022-12-12T14:26:28.669Z,-1.83
2022-12-12T14:29:17.092Z,-1.99
2022-12-12T14:32:11.065Z,-1.97
2022-12-12T14:35:12.801Z,-2.17
2022-12-12T14:38:03.729Z,-2.33
2022-12-12T14:40:32.322Z,-2.40
2022-12-12T14:43:23.272Z,-2.51
2022-12-12T14:45:50.003Z,-2.56
2022-12-12T14:48:27.292Z,-2.65
2022-12-12T14:50:56.356Z,-2.72
2022-12-12T14:53:28.918Z,-2.79
2022-12-12T14:56:00.225Z,-2.89
2022-12-12T14:58:28.344Z,-2.92
2022-12-12T15:00:57.317Z,-3.05
2022-12-12T15:03:29.556Z,-3.20
2022-12-12T15:06:40.904Z,-3.28
2022-12-12T15:09:13.739Z,-3.33
2022-12-12T15:11:40.663Z,-3.27
2022-12-12T15:14:15.225Z,-3.27
2022-12-12T15:16:48.606Z,-3.59
2022-12-12T15:19:35.453Z,-3.70
2022-12-12T15:22:01.900Z,-3.58
2022-12-12T15:24:29.431Z,-3.68
2022-12-12T15:26:59.160Z,-3.66
2022-12-12T15:29:29.819Z,-3.66
2022-12-12T15:32:06.955Z,-3.63
2022-12-12T15:34:41.232Z,-3.75
2022-12-12T15:37:25.717Z,-3.66
2022-12-12T15:40:02.876Z,-3.65
2022-12-12T15:42:29.416Z,-3.66
2022-12-12T15:44:56.028Z,-3.80
2022-12-12T15:47:22.499Z,-3.90
2022-12-12T15:49:48.911Z,-4.02
2022-12-12T15:52:19.803Z,-4.00
2022-12-12T15:54:47.755Z,-4.09
2022-12-12T15:57:16.779Z,-4.12
2022-12-12T15:59:43.234Z,-4.31
2022-12-12T16:02:23.481Z,-4.26
2022-12-12T16:05:26.114Z,-4.29
2022-12-12T16:07:52.667Z,-4.57
2022-12-12T16:10:23.524Z,-4.36
2022-12-12T16:13:04.659Z,-4.32
2022-12-12T16:15:37.521Z,-4.33
2022-12-12T16:18:07.905Z,-4.36
2022-12-12T16:20:43.943Z,-4.30
2022-12-12T16:23:18.647Z,-4.35
2022-12-12T16:25:45.156Z,-4.41
2022-12-12T16:28:11.542Z,-4.46
2022-12-12T16:30:38.950Z,-4.45
2022-12-12T16:33:24.164Z,-4.46
2022-12-12T16:35:50.652Z,-4.49
2022-12-12T16:38:17.463Z,-4.49
2022-12-12T16:40:44.893Z,-4.58
2022-12-12T16:43:12.844Z,-4.51
2022-12-12T16:45:39.776Z,-4.54
2022-12-12T16:48:31.289Z,-4.59
2022-12-12T16:51:00.862Z,-4.50
2022-12-12T16:53:27.387Z,-4.60
2022-12-12T16:55:54.449Z,-4.49
2022-12-12T16:58:23.750Z,-4.49
2022-12-12T17:00:52.780Z,-4.60
2022-12-12T17:03:19.926Z,-4.61
2022-12-12T17:05:47.086Z,-4.64
2022-12-12T17:08:15.835Z,-4.66
2022-12-12T17:10:43.266Z,-4.65
2022-12-12T17:13:14.922Z,-4.71
2022-12-12T17:15:41.457Z,-4.67
2022-12-12T17:18:07.915Z,-4.66
2022-12-12T17:20:37.470Z,-4.77
2022-12-12T17:25:49.915Z,-4.82
2022-12-12T17:28:18.731Z,-4.79
2022-12-12T17:30:46.000Z,-4.79
2022-12-12T17:33:18.334Z,-4.54
2022-12-12T17:35:45.121Z,-4.56
2022-12-12T17:38:16.198Z,-4.44
2022-12-12T17:40:43.323Z,-4.49
2022-12-12T17:43:09.809Z,-4.47
2022-12-12T17:45:36.358Z,-4.62
2022-12-12T17:48:04.629Z,-4.69
2022-12-12T17:50:31.238Z,-4.71
2022-12-12T17:52:57.793Z,-4.96
2022-12-12T17:55:52.336Z,-4.83
2022-12-12T17:58:10.694Z,-4.80
2022-12-12T18:00:37.707Z,-4.79
2022-12-12T18:03:04.201Z,-4.82
2022-12-12T18:05:31.935Z,-4.85
2022-12-12T18:07:58.472Z,-5.02
2022-12-12T18:10:24.982Z,-4.84
2022-12-12T18:12:51.916Z,-4.94
2022-12-12T18:15:18.771Z,-4.96
2022-12-12T18:17:45.240Z,-4.95
2022-12-12T18:20:12.095Z,-5.00
2022-12-12T18:22:38.897Z,-4.95
2022-12-12T18:25:06.033Z,-5.11
2022-12-12T18:27:32.496Z,-5.19
2022-12-12T18:29:58.957Z,-5.22
2022-12-12T18:32:25.455Z,-5.25
2022-12-12T18:34:51.905Z,-5.36
2022-12-12T18:37:18.386Z,-5.36
2022-12-12T18:39:44.915Z,-5.09
2022-12-12T18:42:11.958Z,-4.98
2022-12-12T18:44:38.438Z,-4.95
2022-12-12T18:47:04.966Z,-4.87
2022-12-12T18:49:31.430Z,-4.90
2022-12-12T18:51:57.946Z,-5.10
2022-12-12T18:54:24.653Z,-5.30
2022-12-12T18:56:51.182Z,-5.28
2022-12-12T18:59:17.714Z,-5.38
2022-12-12T19:01:44.285Z,-5.44
2022-12-12T19:04:14.342Z,-5.20
2022-12-12T19:06:44.238Z,-5.19
2022-12-12T19:09:15.336Z,-4.61
2022-12-12T19:11:41.830Z,-4.26
2022-12-12T19:14:08.470Z,-4.15
2022-12-12T19:16:35.055Z,-3.91
2022-12-12T19:19:01.709Z,-3.67
2022-12-12T19:21:28.278Z,-3.49
2022-12-12T19:23:54.840Z,-3.53
2022-12-12T19:26:25.999Z,-3.51
2022-12-12T19:28:56.534Z,-3.50
2022-12-12T19:31:23.095Z,-3.49
2022-12-12T19:33:49.883Z,-3.51
2022-12-12T19:36:21.176Z,-3.85
2022-12-12T19:38:47.727Z,-4.04
2022-12-12T19:41:15.121Z,-4.18
2022-12-12T19:43:42.383Z,-4.15
2022-12-12T19:46:16.938Z,-4.43
2022-12-12T19:48:43.800Z,-4.35
2022-12-12T19:51:14.954Z,-4.46
2022-12-12T19:53:46.611Z,-4.53
2022-12-12T19:56:14.445Z,-4.67
2022-12-12T19:58:41.262Z,-4.86
2022-12-12T20:01:12.433Z,-4.98
2022-12-12T20:03:40.373Z,-4.97
2022-12-12T20:06:08.777Z,-5.11
2022-12-12T20:08:35.602Z,-5.05
2022-12-12T20:11:10.253Z,-5.23
2022-12-12T20:13:36.859Z,-5.35
2022-12-12T20:16:07.803Z,-5.52
2022-12-12T20:18:34.367Z,-5.53
2022-12-12T20:21:03.869Z,-5.59
2022-12-12T20:23:31.262Z,-5.67
2022-12-12T20:25:57.946Z,-5.78
2022-12-12T20:28:24.466Z,-5.54
2022-12-12T20:30:53.601Z,-5.36
2022-12-12T20:33:20.281Z,-5.23
2022-12-12T20:35:46.763Z,-5.13
2022-12-12T20:38:13.373Z,-5.26
2022-12-12T20:40:39.910Z,-5.23
2022-12-12T20:43:06.524Z,-5.12
2022-12-12T20:45:35.938Z,-5.13
2022-12-12T20:48:07.401Z,-5.19
2022-12-12T20:50:34.288Z,-5.39
2022-12-12T20:53:00.807Z,-5.70
2022-12-12T20:55:27.311Z,-5.82
2022-12-12T20:57:54.233Z,-5.79
2022-12-12T21:00:20.767Z,-5.94
2022-12-12T21:02:47.313Z,-6.00
2022-12-12T21:05:13.902Z,-5.86
2022-12-12T21:07:40.873Z,-5.48
2022-12-12T21:10:07.571Z,-4.95
2022-12-12T21:12:34.292Z,-4.71
2022-12-12T21:15:02.893Z,-4.48
2022-12-12T21:17:30.238Z,-4.35
2022-12-12T21:20:00.474Z,-4.24
2022-12-12T21:22:29.937Z,-4.28
2022-12-12T21:24:56.431Z,-4.19
2022-12-12T21:27:22.924Z,-4.21
2022-12-12T21:29:49.398Z,-4.22
2022-12-12T21:32:15.867Z,-4.38
2022-12-12T21:34:42.398Z,-4.51
2022-12-12T21:37:08.890Z,-4.66
2022-12-12T21:39:35.631Z,-4.79
2022-12-12T21:42:02.108Z,-5.01
2022-12-12T21:44:28.613Z,-5.06
2022-12-12T21:46:55.173Z,-5.23
2022-12-12T21:49:27.963Z,-5.46
2022-12-12T21:51:55.728Z,-5.51
2022-12-12T21:54:22.354Z,-5.43
2022-12-12T21:56:48.837Z,-5.50
2022-12-12T21:59:15.378Z,-5.80
2022-12-12T22:01:42.083Z,-5.62
2022-12-12T22:04:09.725Z,-5.75
2022-12-12T22:06:36.447Z,-5.77
2022-12-12T22:09:05.825Z,-5.84
2022-12-12T22:11:40.760Z,-5.62
2022-12-12T22:14:18.283Z,-5.68
2022-12-12T22:16:44.859Z,-5.87
2022-12-12T22:19:12.226Z,-5.90
2022-12-12T22:21:38.700Z,-5.99
2022-12-12T22:24:05.819Z,-5.98
2022-12-12T22:26:34.330Z,-5.88
2022-12-12T22:29:02.477Z,-5.79
2022-12-12T22:31:31.016Z,-6.07
2022-12-12T22:33:59.487Z,-6.15
2022-12-12T22:36:33.921Z,-6.06
2022-12-12T22:39:00.586Z,-6.10
2022-12-12T22:41:27.737Z,-6.05
2022-12-12T22:43:59.090Z,-6.05
2022-12-12T22:46:26.281Z,-6.19
2022-12-12T22:48:54.015Z,-6.47
2022-12-12T22:51:25.268Z,-6.34
2022-12-12T22:53:51.900Z,-6.33
2022-12-12T22:56:18.375Z,-6.30
2022-12-12T22:58:44.870Z,-6.35
2022-12-12T23:01:13.594Z,-6.32
2022-12-12T23:03:40.152Z,-6.28
2022-12-12T23:06:09.269Z,-6.19
2022-12-12T23:08:35.771Z,-6.22
2022-12-12T23:11:13.211Z,-6.18
2022-12-12T23:13:42.609Z,-6.33
2022-12-12T23:16:10.562Z,-6.36
2022-12-12T23:18:37.772Z,-6.39
2022-12-12T23:21:05.696Z,-6.30
2022-12-12T23:23:34.144Z,-6.39
2022-12-12T23:26:04.935Z,-6.49
2022-12-12T23:28:31.481Z,-6.36
2022-12-12T23:30:58.264Z,-6.22
2022-12-12T23:33:24.766Z,-6.43
2022-12-12T23:35:51.771Z,-6.47
2022-12-12T23:38:18.335Z,-6.51
2022-12-12T23:40:45.830Z,-6.53
2022-12-12T23:43:12.354Z,-6.43
2022-12-12T23:45:39.302Z,-6.43
2022-12-12T23:48:06.149Z,-6.39
2022-12-12T23:50:32.942Z,-6.56
2022-12-12T23:52:59.620Z,-6.67
2022-12-12T23:55:26.068Z,-6.68
2022-12-12T23:57:52.531Z,-6.81
